sensor_id;sensor_type;location;lat;lon;timestamp;P1;durP1;ratioP1;P2;durP2;ratioP2
79229;SDS011;68663;49.122;17.544;2024-01-16T00:01:18;2.87;;;2.30;;
79229;SDS011;68663;49.122;17.544;2024-01-16T00:03:45;2.65;;;1.88;;
79229;SDS011;68663;49.122;17.544;2024-01-16T00:06:10;2.83;;;1.95;;
79229;SDS011;68663;49.122;17.544;2024-01-16T00:08:35;1.98;;;1.75;;
79229;SDS011;68663;49.122;17.544;2024-01-16T00:11:01;1.95;;;1.73;;
79229;SDS011;68663;49.122;17.544;2024-01-16T00:13:27;2.80;;;2.00;;
79229;SDS011;68663;49.122;17.544;2024-01-16T00:15:53;2.50;;;1.90;;
79229;SDS011;68663;49.122;17.544;2024-01-16T00:18:18;2.40;;;1.80;;
79229;SDS011;68663;49.122;17.544;2024-01-16T00:20:44;2.50;;;1.90;;
79229;SDS011;68663;49.122;17.544;2024-01-16T00:23:09;1.92;;;1.50;;
79229;SDS011;68663;49.122;17.544;2024-01-16T00:25:35;2.58;;;1.60;;
79229;SDS011;68663;49.122;17.544;2024-01-16T00:28:01;2.63;;;1.90;;
79229;SDS011;68663;49.122;17.544;2024-01-16T00:30:26;2.50;;;1.80;;
79229;SDS011;68663;49.122;17.544;2024-01-16T00:32:52;2.20;;;1.70;;
79229;SDS011;68663;49.122;17.544;2024-01-16T00:35:17;1.70;;;1.43;;
79229;SDS011;68663;49.122;17.544;2024-01-16T00:37:43;2.00;;;1.63;;
79229;SDS011;68663;49.122;17.544;2024-01-16T00:40:08;2.70;;;1.95;;
79229;SDS011;68663;49.122;17.544;2024-01-16T00:42:34;1.95;;;1.58;;
79229;SDS011;68663;49.122;17.544;2024-01-16T00:45:00;2.63;;;2.00;;
79229;SDS011;68663;49.122;17.544;2024-01-16T00:47:25;1.90;;;1.60;;
79229;SDS011;68663;49.122;17.544;2024-01-16T00:49:51;3.10;;;1.93;;
79229;SDS011;68663;49.122;17.544;2024-01-16T00:52:16;2.17;;;1.70;;
79229;SDS011;68663;49.122;17.544;2024-01-16T00:54:44;2.75;;;1.95;;
79229;SDS011;68663;49.122;17.544;2024-01-16T00:59:36;2.43;;;2.07;;
79229;SDS011;68663;49.122;17.544;2024-01-16T01:02:01;2.35;;;1.83;;
79229;SDS011;68663;49.122;17.544;2024-01-16T01:04:28;2.08;;;1.75;;
79229;SDS011;68663;49.122;17.544;2024-01-16T01:06:54;2.20;;;1.80;;
79229;SDS011;68663;49.122;17.544;2024-01-16T01:09:20;3.03;;;1.70;;
79229;SDS011;68663;49.122;17.544;2024-01-16T01:11:45;2.85;;;1.80;;
79229;SDS011;68663;49.122;17.544;2024-01-16T01:14:11;1.88;;;1.65;;
79229;SDS011;68663;49.122;17.544;2024-01-16T01:16:36;2.35;;;1.83;;
79229;SDS011;68663;49.122;17.544;2024-01-16T01:19:01;2.15;;;1.63;;
79229;SDS011;68663;49.122;17.544;2024-01-16T01:21:28;3.05;;;2.08;;
79229;SDS011;68663;49.122;17.544;2024-01-16T01:23:53;1.77;;;1.42;;
79229;SDS011;68663;49.122;17.544;2024-01-16T01:26:19;2.22;;;1.73;;
79229;SDS011;68663;49.122;17.544;2024-01-16T01:28:44;2.58;;;2.17;;
79229;SDS011;68663;49.122;17.544;2024-01-16T01:31:10;2.53;;;1.80;;
79229;SDS011;68663;49.122;17.544;2024-01-16T01:33:36;2.33;;;1.75;;
79229;SDS011;68663;49.122;17.544;2024-01-16T01:36:01;2.15;;;1.80;;
79229;SDS011;68663;49.122;17.544;2024-01-16T01:38:27;2.45;;;1.80;;
79229;SDS011;68663;49.122;17.544;2024-01-16T01:40:53;2.07;;;1.70;;
79229;SDS011;68663;49.122;17.544;2024-01-16T01:43:21;1.90;;;1.60;;
79229;SDS011;68663;49.122;17.544;2024-01-16T01:45:55;1.70;;;1.50;;
79229;SDS011;68663;49.122;17.544;2024-01-16T01:48:33;1.90;;;1.60;;
79229;SDS011;68663;49.122;17.544;2024-01-16T01:50:59;2.28;;;1.80;;
79229;SDS011;68663;49.122;17.544;2024-01-16T01:53:26;2.00;;;1.60;;
79229;SDS011;68663;49.122;17.544;2024-01-16T01:55:53;2.05;;;1.50;;
79229;SDS011;68663;49.122;17.544;2024-01-16T01:58:20;2.60;;;1.70;;
79229;SDS011;68663;49.122;17.544;2024-01-16T02:00:45;2.13;;;1.70;;
79229;SDS011;68663;49.122;17.544;2024-01-16T02:03:11;2.03;;;1.70;;
79229;SDS011;68663;49.122;17.544;2024-01-16T02:05:37;2.00;;;1.77;;
79229;SDS011;68663;49.122;17.544;2024-01-16T02:08:04;2.08;;;1.73;;
79229;SDS011;68663;49.122;17.544;2024-01-16T02:10:30;2.17;;;1.90;;
79229;SDS011;68663;49.122;17.544;2024-01-16T02:12:56;2.03;;;1.58;;
79229;SDS011;68663;49.122;17.544;2024-01-16T02:15:23;4.53;;;1.60;;
79229;SDS011;68663;49.122;17.544;2024-01-16T02:17:48;5.20;;;1.63;;
79229;SDS011;68663;49.122;17.544;2024-01-16T02:20:14;1.92;;;1.60;;
79229;SDS011;68663;49.122;17.544;2024-01-16T02:22:39;2.72;;;1.73;;
79229;SDS011;68663;49.122;17.544;2024-01-16T02:25:11;2.22;;;1.60;;
79229;SDS011;68663;49.122;17.544;2024-01-16T02:27:36;1.92;;;1.50;;
79229;SDS011;68663;49.122;17.544;2024-01-16T02:30:02;3.20;;;1.50;;
79229;SDS011;68663;49.122;17.544;2024-01-16T02:32:27;2.45;;;1.60;;
79229;SDS011;68663;49.122;17.544;2024-01-16T02:34:53;2.33;;;1.80;;
79229;SDS011;68663;49.122;17.544;2024-01-16T02:37:18;2.17;;;1.73;;
79229;SDS011;68663;49.122;17.544;2024-01-16T02:39:44;2.40;;;1.65;;
79229;SDS011;68663;49.122;17.544;2024-01-16T02:42:10;2.05;;;1.50;;
79229;SDS011;68663;49.122;17.544;2024-01-16T02:44:35;2.03;;;1.60;;
79229;SDS011;68663;49.122;17.544;2024-01-16T02:47:01;2.63;;;1.58;;
79229;SDS011;68663;49.122;17.544;2024-01-16T02:49:26;1.95;;;1.60;;
79229;SDS011;68663;49.122;17.544;2024-01-16T02:51:52;1.50;;;1.17;;
79229;SDS011;68663;49.122;17.544;2024-01-16T02:54:17;2.35;;;1.63;;
79229;SDS011;68663;49.122;17.544;2024-01-16T02:56:43;2.25;;;1.70;;
79229;SDS011;68663;49.122;17.544;2024-01-16T02:59:09;2.30;;;1.70;;
79229;SDS011;68663;49.122;17.544;2024-01-16T03:01:35;2.28;;;1.48;;
79229;SDS011;68663;49.122;17.544;2024-01-16T03:04:01;2.08;;;1.45;;
79229;SDS011;68663;49.122;17.544;2024-01-16T03:06:26;1.67;;;1.30;;
79229;SDS011;68663;49.122;17.544;2024-01-16T03:08:53;2.17;;;1.45;;
79229;SDS011;68663;49.122;17.544;2024-01-16T03:11:19;1.80;;;1.65;;
79229;SDS011;68663;49.122;17.544;2024-01-16T03:13:44;1.95;;;1.30;;
79229;SDS011;68663;49.122;17.544;2024-01-16T03:16:10;1.67;;;1.42;;
79229;SDS011;68663;49.122;17.544;2024-01-16T03:18:36;2.17;;;1.42;;
79229;SDS011;68663;49.122;17.544;2024-01-16T03:21:03;1.45;;;1.30;;
79229;SDS011;68663;49.122;17.544;2024-01-16T03:23:29;1.83;;;1.50;;
79229;SDS011;68663;49.122;17.544;2024-01-16T03:25:54;1.92;;;1.55;;
79229;SDS011;68663;49.122;17.544;2024-01-16T03:28:19;1.73;;;1.33;;
79229;SDS011;68663;49.122;17.544;2024-01-16T03:30:45;1.63;;;1.50;;
79229;SDS011;68663;49.122;17.544;2024-01-16T03:33:11;1.70;;;1.40;;
79229;SDS011;68663;49.122;17.544;2024-01-16T03:35:36;1.65;;;1.40;;
79229;SDS011;68663;49.122;17.544;2024-01-16T03:38:02;1.92;;;1.40;;
79229;SDS011;68663;49.122;17.544;2024-01-16T03:40:27;1.63;;;1.40;;
79229;SDS011;68663;49.122;17.544;2024-01-16T03:42:53;2.17;;;1.60;;
79229;SDS011;68663;49.122;17.544;2024-01-16T03:45:19;1.63;;;1.40;;
79229;SDS011;68663;49.122;17.544;2024-01-16T03:47:45;2.25;;;1.70;;
79229;SDS011;68663;49.122;17.544;2024-01-16T03:50:10;1.73;;;1.30;;
79229;SDS011;68663;49.122;17.544;2024-01-16T03:52:36;2.20;;;1.40;;
79229;SDS011;68663;49.122;17.544;2024-01-16T03:55:01;1.90;;;1.63;;
79229;SDS011;68663;49.122;17.544;2024-01-16T03:57:26;1.50;;;1.40;;
79229;SDS011;68663;49.122;17.544;2024-01-16T03:59:52;1.77;;;1.48;;
79229;SDS011;68663;49.122;17.544;2024-01-16T04:02:17;2.58;;;1.90;;
79229;SDS011;68663;49.122;17.544;2024-01-16T04:04:43;1.63;;;1.50;;
79229;SDS011;68663;49.122;17.544;2024-01-16T04:07:08;1.70;;;1.35;;
79229;SDS011;68663;49.122;17.544;2024-01-16T04:09:34;1.98;;;1.45;;
79229;SDS011;68663;49.122;17.544;2024-01-16T04:12:00;1.70;;;1.38;;
79229;SDS011;68663;49.122;17.544;2024-01-16T04:14:25;2.00;;;1.48;;
79229;SDS011;68663;49.122;17.544;2024-01-16T04:16:51;1.80;;;1.50;;
79229;SDS011;68663;49.122;17.544;2024-01-16T04:19:16;1.75;;;1.40;;
79229;SDS011;68663;49.122;17.544;2024-01-16T04:21:42;1.52;;;1.30;;
79229;SDS011;68663;49.122;17.544;2024-01-16T04:24:07;2.08;;;1.50;;
79229;SDS011;68663;49.122;17.544;2024-01-16T04:26:33;2.00;;;1.67;;
79229;SDS011;68663;49.122;17.544;2024-01-16T04:29:01;1.90;;;1.50;;
79229;SDS011;68663;49.122;17.544;2024-01-16T04:31:26;1.55;;;1.40;;
79229;SDS011;68663;49.122;17.544;2024-01-16T04:33:51;2.95;;;1.60;;
79229;SDS011;68663;49.122;17.544;2024-01-16T04:36:17;1.73;;;1.27;;
79229;SDS011;68663;49.122;17.544;2024-01-16T04:38:42;1.70;;;1.30;;
79229;SDS011;68663;49.122;17.544;2024-01-16T04:41:08;1.70;;;1.27;;
79229;SDS011;68663;49.122;17.544;2024-01-16T04:43:33;2.30;;;1.42;;
79229;SDS011;68663;49.122;17.544;2024-01-16T04:45:58;2.70;;;1.50;;
79229;SDS011;68663;49.122;17.544;2024-01-16T04:48:24;2.97;;;1.75;;
79229;SDS011;68663;49.122;17.544;2024-01-16T04:50:49;5.33;;;1.70;;
79229;SDS011;68663;49.122;17.544;2024-01-16T04:53:14;2.75;;;1.58;;
79229;SDS011;68663;49.122;17.544;2024-01-16T04:55:41;5.75;;;1.88;;
79229;SDS011;68663;49.122;17.544;2024-01-16T04:58:06;4.88;;;1.88;;
79229;SDS011;68663;49.122;17.544;2024-01-16T05:00:32;3.03;;;1.80;;
79229;SDS011;68663;49.122;17.544;2024-01-16T05:02:57;3.58;;;1.67;;
79229;SDS011;68663;49.122;17.544;2024-01-16T05:05:23;2.03;;;1.40;;
79229;SDS011;68663;49.122;17.544;2024-01-16T05:07:48;5.15;;;1.58;;
79229;SDS011;68663;49.122;17.544;2024-01-16T05:10:14;25.38;;;6.05;;
79229;SDS011;68663;49.122;17.544;2024-01-16T05:12:40;57.15;;;13.65;;
79229;SDS011;68663;49.122;17.544;2024-01-16T05:15:06;56.17;;;14.55;;
79229;SDS011;68663;49.122;17.544;2024-01-16T05:17:33;56.15;;;14.80;;
79229;SDS011;68663;49.122;17.544;2024-01-16T05:19:58;59.67;;;16.20;;
79229;SDS011;68663;49.122;17.544;2024-01-16T05:22:24;51.25;;;13.93;;
79229;SDS011;68663;49.122;17.544;2024-01-16T05:24:50;45.65;;;13.32;;
79229;SDS011;68663;49.122;17.544;2024-01-16T05:27:16;47.22;;;12.45;;
79229;SDS011;68663;49.122;17.544;2024-01-16T05:29:41;37.53;;;11.35;;
79229;SDS011;68663;49.122;17.544;2024-01-16T05:32:07;42.75;;;11.43;;
79229;SDS011;68663;49.122;17.544;2024-01-16T05:34:32;34.20;;;10.30;;
79229;SDS011;68663;49.122;17.544;2024-01-16T05:36:57;33.55;;;10.20;;
79229;SDS011;68663;49.122;17.544;2024-01-16T05:39:23;30.90;;;10.75;;
79229;SDS011;68663;49.122;17.544;2024-01-16T05:41:49;35.37;;;10.63;;
79229;SDS011;68663;49.122;17.544;2024-01-16T05:44:15;27.85;;;8.43;;
79229;SDS011;68663;49.122;17.544;2024-01-16T05:46:41;27.80;;;9.10;;
79229;SDS011;68663;49.122;17.544;2024-01-16T05:49:06;27.27;;;8.60;;
79229;SDS011;68663;49.122;17.544;2024-01-16T05:51:32;28.45;;;8.65;;
79229;SDS011;68663;49.122;17.544;2024-01-16T05:53:57;26.38;;;8.35;;
79229;SDS011;68663;49.122;17.544;2024-01-16T05:56:22;29.23;;;8.93;;
79229;SDS011;68663;49.122;17.544;2024-01-16T05:58:48;29.25;;;9.43;;
79229;SDS011;68663;49.122;17.544;2024-01-16T06:01:13;25.53;;;7.93;;
79229;SDS011;68663;49.122;17.544;2024-01-16T06:03:39;22.95;;;8.38;;
79229;SDS011;68663;49.122;17.544;2024-01-16T06:06:05;23.13;;;8.23;;
79229;SDS011;68663;49.122;17.544;2024-01-16T06:08:32;23.58;;;8.93;;
79229;SDS011;68663;49.122;17.544;2024-01-16T06:10:58;21.30;;;8.35;;
79229;SDS011;68663;49.122;17.544;2024-01-16T06:13:23;22.70;;;7.97;;
79229;SDS011;68663;49.122;17.544;2024-01-16T06:15:49;24.75;;;7.30;;
79229;SDS011;68663;49.122;17.544;2024-01-16T06:18:14;19.43;;;7.67;;
79229;SDS011;68663;49.122;17.544;2024-01-16T06:20:39;22.25;;;7.25;;
79229;SDS011;68663;49.122;17.544;2024-01-16T06:23:05;21.90;;;7.23;;
79229;SDS011;68663;49.122;17.544;2024-01-16T06:25:30;17.73;;;6.70;;
79229;SDS011;68663;49.122;17.544;2024-01-16T06:27:56;20.60;;;7.22;;
79229;SDS011;68663;49.122;17.544;2024-01-16T06:30:21;20.42;;;7.70;;
79229;SDS011;68663;49.122;17.544;2024-01-16T06:32:48;18.45;;;6.85;;
79229;SDS011;68663;49.122;17.544;2024-01-16T06:35:14;17.65;;;7.07;;
79229;SDS011;68663;49.122;17.544;2024-01-16T06:37:40;17.65;;;7.13;;
79229;SDS011;68663;49.122;17.544;2024-01-16T06:40:06;16.38;;;7.15;;
79229;SDS011;68663;49.122;17.544;2024-01-16T06:42:32;13.40;;;5.97;;
79229;SDS011;68663;49.122;17.544;2024-01-16T06:44:58;17.40;;;7.03;;
79229;SDS011;68663;49.122;17.544;2024-01-16T06:47:23;15.02;;;6.57;;
79229;SDS011;68663;49.122;17.544;2024-01-16T06:49:49;16.75;;;6.00;;
79229;SDS011;68663;49.122;17.544;2024-01-16T06:52:14;14.63;;;6.50;;
79229;SDS011;68663;49.122;17.544;2024-01-16T06:54:40;11.38;;;5.63;;
79229;SDS011;68663;49.122;17.544;2024-01-16T06:57:05;13.82;;;5.35;;
79229;SDS011;68663;49.122;17.544;2024-01-16T06:59:31;17.15;;;6.22;;
79229;SDS011;68663;49.122;17.544;2024-01-16T07:01:57;16.90;;;6.60;;
79229;SDS011;68663;49.122;17.544;2024-01-16T07:04:22;12.15;;;5.28;;
79229;SDS011;68663;49.122;17.544;2024-01-16T07:06:48;14.27;;;5.43;;
79229;SDS011;68663;49.122;17.544;2024-01-16T07:09:14;14.32;;;6.28;;
79229;SDS011;68663;49.122;17.544;2024-01-16T07:11:41;12.68;;;5.75;;
79229;SDS011;68663;49.122;17.544;2024-01-16T07:14:08;12.70;;;5.97;;
79229;SDS011;68663;49.122;17.544;2024-01-16T07:16:34;16.55;;;6.05;;
79229;SDS011;68663;49.122;17.544;2024-01-16T07:19:00;14.40;;;5.40;;
79229;SDS011;68663;49.122;17.544;2024-01-16T07:21:26;13.38;;;5.28;;
79229;SDS011;68663;49.122;17.544;2024-01-16T07:23:52;13.40;;;5.07;;
79229;SDS011;68663;49.122;17.544;2024-01-16T07:26:18;11.90;;;5.40;;
79229;SDS011;68663;49.122;17.544;2024-01-16T07:28:44;12.48;;;5.20;;
79229;SDS011;68663;49.122;17.544;2024-01-16T07:31:09;13.98;;;5.80;;
79229;SDS011;68663;49.122;17.544;2024-01-16T07:33:35;11.87;;;4.90;;
79229;SDS011;68663;49.122;17.544;2024-01-16T07:36:01;10.90;;;4.93;;
79229;SDS011;68663;49.122;17.544;2024-01-16T07:38:26;12.05;;;4.60;;
79229;SDS011;68663;49.122;17.544;2024-01-16T07:40:52;11.05;;;5.07;;
79229;SDS011;68663;49.122;17.544;2024-01-16T07:43:17;11.13;;;4.53;;
79229;SDS011;68663;49.122;17.544;2024-01-16T07:45:42;9.00;;;4.57;;
79229;SDS011;68663;49.122;17.544;2024-01-16T07:48:08;12.27;;;5.38;;
79229;SDS011;68663;49.122;17.544;2024-01-16T07:50:33;9.30;;;4.53;;
79229;SDS011;68663;49.122;17.544;2024-01-16T07:52:59;12.32;;;5.25;;
79229;SDS011;68663;49.122;17.544;2024-01-16T07:55:24;11.35;;;4.55;;
79229;SDS011;68663;49.122;17.544;2024-01-16T07:57:50;11.60;;;4.67;;
79229;SDS011;68663;49.122;17.544;2024-01-16T08:00:15;10.63;;;4.65;;
79229;SDS011;68663;49.122;17.544;2024-01-16T08:02:41;9.90;;;4.55;;
79229;SDS011;68663;49.122;17.544;2024-01-16T08:05:07;9.85;;;4.63;;
79229;SDS011;68663;49.122;17.544;2024-01-16T08:07:32;12.45;;;5.20;;
79229;SDS011;68663;49.122;17.544;2024-01-16T08:09:59;10.77;;;4.57;;
79229;SDS011;68663;49.122;17.544;2024-01-16T08:12:25;10.48;;;4.65;;
79229;SDS011;68663;49.122;17.544;2024-01-16T08:14:50;10.63;;;4.33;;
79229;SDS011;68663;49.122;17.544;2024-01-16T08:17:15;10.40;;;4.60;;
79229;SDS011;68663;49.122;17.544;2024-01-16T08:19:41;9.50;;;4.60;;
79229;SDS011;68663;49.122;17.544;2024-01-16T08:22:06;8.40;;;3.93;;
79229;SDS011;68663;49.122;17.544;2024-01-16T08:24:32;9.10;;;3.97;;
79229;SDS011;68663;49.122;17.544;2024-01-16T08:26:57;9.65;;;4.20;;
79229;SDS011;68663;49.122;17.544;2024-01-16T08:29:23;10.40;;;4.28;;
79229;SDS011;68663;49.122;17.544;2024-01-16T08:31:49;8.25;;;4.57;;
79229;SDS011;68663;49.122;17.544;2024-01-16T08:34:16;9.50;;;4.05;;
79229;SDS011;68663;49.122;17.544;2024-01-16T08:36:41;8.03;;;3.67;;
79229;SDS011;68663;49.122;17.544;2024-01-16T08:39:07;9.05;;;4.32;;
79229;SDS011;68663;49.122;17.544;2024-01-16T08:41:32;8.57;;;3.97;;
79229;SDS011;68663;49.122;17.544;2024-01-16T08:43:57;8.07;;;3.87;;
79229;SDS011;68663;49.122;17.544;2024-01-16T08:46:23;8.30;;;3.78;;
79229;SDS011;68663;49.122;17.544;2024-01-16T08:48:49;8.15;;;3.67;;
79229;SDS011;68663;49.122;17.544;2024-01-16T08:51:14;5.95;;;3.58;;
79229;SDS011;68663;49.122;17.544;2024-01-16T08:53:40;8.85;;;3.38;;
79229;SDS011;68663;49.122;17.544;2024-01-16T08:56:05;7.20;;;3.88;;
79229;SDS011;68663;49.122;17.544;2024-01-16T08:58:34;7.43;;;3.78;;
79229;SDS011;68663;49.122;17.544;2024-01-16T09:01:03;7.25;;;3.72;;
79229;SDS011;68663;49.122;17.544;2024-01-16T09:03:32;8.23;;;4.07;;
79229;SDS011;68663;49.122;17.544;2024-01-16T09:05:58;7.28;;;3.72;;
79229;SDS011;68663;49.122;17.544;2024-01-16T09:08:25;8.30;;;4.15;;
79229;SDS011;68663;49.122;17.544;2024-01-16T09:10:51;6.05;;;3.65;;
79229;SDS011;68663;49.122;17.544;2024-01-16T09:13:17;7.57;;;3.47;;
79229;SDS011;68663;49.122;17.544;2024-01-16T09:15:43;8.30;;;3.60;;
79229;SDS011;68663;49.122;17.544;2024-01-16T09:18:08;9.27;;;3.73;;
79229;SDS011;68663;49.122;17.544;2024-01-16T09:20:34;8.93;;;3.70;;
79229;SDS011;68663;49.122;17.544;2024-01-16T09:22:59;6.93;;;3.85;;
79229;SDS011;68663;49.122;17.544;2024-01-16T09:25:25;7.40;;;3.03;;
79229;SDS011;68663;49.122;17.544;2024-01-16T09:27:52;8.35;;;3.90;;
79229;SDS011;68663;49.122;17.544;2024-01-16T09:30:18;5.20;;;2.92;;
79229;SDS011;68663;49.122;17.544;2024-01-16T09:32:44;6.68;;;3.45;;
79229;SDS011;68663;49.122;17.544;2024-01-16T09:35:10;6.10;;;3.65;;
79229;SDS011;68663;49.122;17.544;2024-01-16T09:37:36;7.28;;;3.75;;
79229;SDS011;68663;49.122;17.544;2024-01-16T09:40:01;7.85;;;3.35;;
79229;SDS011;68663;49.122;17.544;2024-01-16T09:42:27;30.45;;;5.15;;
79229;SDS011;68663;49.122;17.544;2024-01-16T09:44:52;17.58;;;4.07;;
79229;SDS011;68663;49.122;17.544;2024-01-16T09:47:20;13.75;;;3.60;;
79229;SDS011;68663;49.122;17.544;2024-01-16T09:49:46;9.38;;;3.35;;
79229;SDS011;68663;49.122;17.544;2024-01-16T09:52:12;11.35;;;3.95;;
79229;SDS011;68663;49.122;17.544;2024-01-16T09:54:38;8.77;;;3.35;;
79229;SDS011;68663;49.122;17.544;2024-01-16T09:57:04;14.05;;;3.92;;
79229;SDS011;68663;49.122;17.544;2024-01-16T09:59:31;10.70;;;3.30;;
79229;SDS011;68663;49.122;17.544;2024-01-16T10:01:58;8.35;;;3.30;;
79229;SDS011;68663;49.122;17.544;2024-01-16T10:04:26;9.93;;;3.42;;
79229;SDS011;68663;49.122;17.544;2024-01-16T10:06:52;7.07;;;3.35;;
79229;SDS011;68663;49.122;17.544;2024-01-16T10:09:20;8.60;;;3.22;;
79229;SDS011;68663;49.122;17.544;2024-01-16T10:11:46;7.13;;;2.97;;
79229;SDS011;68663;49.122;17.544;2024-01-16T10:14:12;8.13;;;2.80;;
79229;SDS011;68663;49.122;17.544;2024-01-16T10:19:35;7.10;;;3.15;;
79229;SDS011;68663;49.122;17.544;2024-01-16T10:22:12;8.05;;;3.35;;
79229;SDS011;68663;49.122;17.544;2024-01-16T10:24:38;7.13;;;3.20;;
79229;SDS011;68663;49.122;17.544;2024-01-16T10:27:03;5.43;;;2.87;;
79229;SDS011;68663;49.122;17.544;2024-01-16T10:29:29;5.40;;;2.65;;
79229;SDS011;68663;49.122;17.544;2024-01-16T10:34:23;9.07;;;3.08;;
79229;SDS011;68663;49.122;17.544;2024-01-16T10:36:49;5.95;;;3.00;;
79229;SDS011;68663;49.122;17.544;2024-01-16T10:39:17;7.95;;;3.33;;
79229;SDS011;68663;49.122;17.544;2024-01-16T10:41:53;8.93;;;3.90;;
79229;SDS011;68663;49.122;17.544;2024-01-16T10:44:19;9.48;;;4.50;;
79229;SDS011;68663;49.122;17.544;2024-01-16T10:46:45;5.13;;;3.67;;
79229;SDS011;68663;49.122;17.544;2024-01-16T10:49:10;5.67;;;3.50;;
79229;SDS011;68663;49.122;17.544;2024-01-16T10:54:13;6.65;;;3.28;;
79229;SDS011;68663;49.122;17.544;2024-01-16T10:56:44;21.20;;;3.30;;
79229;SDS011;68663;49.122;17.544;2024-01-16T11:01:41;4.43;;;2.55;;
79229;SDS011;68663;49.122;17.544;2024-01-16T11:04:10;4.45;;;2.72;;
79229;SDS011;68663;49.122;17.544;2024-01-16T11:06:37;4.07;;;2.72;;
79229;SDS011;68663;49.122;17.544;2024-01-16T11:09:03;3.38;;;2.67;;
79229;SDS011;68663;49.122;17.544;2024-01-16T11:11:29;4.30;;;2.35;;
79229;SDS011;68663;49.122;17.544;2024-01-16T11:13:55;4.80;;;2.60;;
79229;SDS011;68663;49.122;17.544;2024-01-16T11:16:22;6.57;;;2.60;;
79229;SDS011;68663;49.122;17.544;2024-01-16T11:18:48;5.40;;;3.10;;
79229;SDS011;68663;49.122;17.544;2024-01-16T11:21:13;5.18;;;2.70;;
79229;SDS011;68663;49.122;17.544;2024-01-16T11:23:40;3.38;;;2.00;;
79229;SDS011;68663;49.122;17.544;2024-01-16T11:28:57;4.03;;;2.47;;
79229;SDS011;68663;49.122;17.544;2024-01-16T11:31:27;4.13;;;2.70;;
79229;SDS011;68663;49.122;17.544;2024-01-16T11:33:54;5.57;;;2.88;;
79229;SDS011;68663;49.122;17.544;2024-01-16T11:39:21;6.50;;;3.30;;
79229;SDS011;68663;49.122;17.544;2024-01-16T11:41:54;5.53;;;3.38;;
79229;SDS011;68663;49.122;17.544;2024-01-16T11:47:03;5.60;;;3.30;;
79229;SDS011;68663;49.122;17.544;2024-01-16T11:49:29;6.47;;;2.97;;
79229;SDS011;68663;49.122;17.544;2024-01-16T11:51:57;6.43;;;3.33;;
79229;SDS011;68663;49.122;17.544;2024-01-16T11:54:23;6.10;;;3.00;;
79229;SDS011;68663;49.122;17.544;2024-01-16T11:57:01;5.80;;;3.28;;
79229;SDS011;68663;49.122;17.544;2024-01-16T12:02:00;5.03;;;2.60;;
79229;SDS011;68663;49.122;17.544;2024-01-16T12:04:30;4.15;;;2.63;;
79229;SDS011;68663;49.122;17.544;2024-01-16T12:06:58;6.60;;;3.05;;
79229;SDS011;68663;49.122;17.544;2024-01-16T12:09:25;5.32;;;2.72;;
79229;SDS011;68663;49.122;17.544;2024-01-16T12:11:56;4.15;;;2.60;;
79229;SDS011;68663;49.122;17.544;2024-01-16T12:14:23;3.88;;;2.55;;
79229;SDS011;68663;49.122;17.544;2024-01-16T12:16:49;4.35;;;2.40;;
79229;SDS011;68663;49.122;17.544;2024-01-16T12:19:14;4.75;;;2.90;;
79229;SDS011;68663;49.122;17.544;2024-01-16T12:21:45;4.50;;;2.70;;
79229;SDS011;68663;49.122;17.544;2024-01-16T12:24:11;9.10;;;3.00;;
79229;SDS011;68663;49.122;17.544;2024-01-16T12:26:37;4.75;;;2.83;;
79229;SDS011;68663;49.122;17.544;2024-01-16T12:29:03;6.55;;;2.95;;
79229;SDS011;68663;49.122;17.544;2024-01-16T12:31:28;3.90;;;2.90;;
79229;SDS011;68663;49.122;17.544;2024-01-16T12:34:07;4.68;;;2.60;;
79229;SDS011;68663;49.122;17.544;2024-01-16T12:36:33;4.47;;;2.70;;
79229;SDS011;68663;49.122;17.544;2024-01-16T12:38:59;5.63;;;2.75;;
79229;SDS011;68663;49.122;17.544;2024-01-16T12:41:24;4.17;;;2.70;;
79229;SDS011;68663;49.122;17.544;2024-01-16T12:46:18;6.05;;;2.95;;
79229;SDS011;68663;49.122;17.544;2024-01-16T12:48:44;3.80;;;2.55;;
79229;SDS011;68663;49.122;17.544;2024-01-16T12:51:10;5.20;;;2.25;;
79229;SDS011;68663;49.122;17.544;2024-01-16T12:53:37;5.47;;;2.58;;
79229;SDS011;68663;49.122;17.544;2024-01-16T12:56:04;4.40;;;2.53;;
79229;SDS011;68663;49.122;17.544;2024-01-16T12:58:34;3.90;;;2.35;;
79229;SDS011;68663;49.122;17.544;2024-01-16T13:03:51;4.90;;;2.50;;
79229;SDS011;68663;49.122;17.544;2024-01-16T13:06:17;4.25;;;2.38;;
79229;SDS011;68663;49.122;17.544;2024-01-16T13:08:49;4.35;;;2.22;;
79229;SDS011;68663;49.122;17.544;2024-01-16T13:11:15;5.00;;;2.65;;
79229;SDS011;68663;49.122;17.544;2024-01-16T13:13:44;4.18;;;2.65;;
79229;SDS011;68663;49.122;17.544;2024-01-16T13:16:13;3.58;;;2.30;;
79229;SDS011;68663;49.122;17.544;2024-01-16T13:18:40;5.13;;;2.40;;
79229;SDS011;68663;49.122;17.544;2024-01-16T13:21:05;4.25;;;2.60;;
79229;SDS011;68663;49.122;17.544;2024-01-16T13:23:31;4.18;;;2.60;;
79229;SDS011;68663;49.122;17.544;2024-01-16T13:25:56;6.97;;;2.55;;
79229;SDS011;68663;49.122;17.544;2024-01-16T13:28:24;3.25;;;2.20;;
79229;SDS011;68663;49.122;17.544;2024-01-16T13:30:50;2.97;;;2.20;;
79229;SDS011;68663;49.122;17.544;2024-01-16T13:33:15;3.63;;;1.90;;
79229;SDS011;68663;49.122;17.544;2024-01-16T13:35:42;2.92;;;2.38;;
79229;SDS011;68663;49.122;17.544;2024-01-16T13:38:09;4.32;;;2.30;;
79229;SDS011;68663;49.122;17.544;2024-01-16T13:40:35;4.22;;;2.53;;
79229;SDS011;68663;49.122;17.544;2024-01-16T13:43:04;3.25;;;2.30;;
79229;SDS011;68663;49.122;17.544;2024-01-16T13:45:31;3.97;;;2.60;;
79229;SDS011;68663;49.122;17.544;2024-01-16T13:47:57;3.53;;;2.17;;
79229;SDS011;68663;49.122;17.544;2024-01-16T13:50:23;3.08;;;2.13;;
79229;SDS011;68663;49.122;17.544;2024-01-16T13:52:49;3.20;;;2.10;;
79229;SDS011;68663;49.122;17.544;2024-01-16T13:55:15;3.78;;;2.70;;
79229;SDS011;68663;49.122;17.544;2024-01-16T13:57:40;3.60;;;2.13;;
79229;SDS011;68663;49.122;17.544;2024-01-16T14:00:10;3.38;;;2.20;;
79229;SDS011;68663;49.122;17.544;2024-01-16T14:02:47;4.38;;;2.40;;
79229;SDS011;68663;49.122;17.544;2024-01-16T14:05:14;2.78;;;1.98;;
79229;SDS011;68663;49.122;17.544;2024-01-16T14:07:41;2.60;;;1.83;;
79229;SDS011;68663;49.122;17.544;2024-01-16T14:10:07;3.00;;;2.13;;
79229;SDS011;68663;49.122;17.544;2024-01-16T14:12:40;3.00;;;2.20;;
79229;SDS011;68663;49.122;17.544;2024-01-16T14:15:10;3.25;;;1.92;;
79229;SDS011;68663;49.122;17.544;2024-01-16T14:17:44;3.47;;;2.45;;
79229;SDS011;68663;49.122;17.544;2024-01-16T14:20:14;3.63;;;2.00;;
79229;SDS011;68663;49.122;17.544;2024-01-16T14:22:41;4.03;;;2.17;;
79229;SDS011;68663;49.122;17.544;2024-01-16T14:27:39;4.05;;;2.17;;
79229;SDS011;68663;49.122;17.544;2024-01-16T14:30:14;3.03;;;2.20;;
79229;SDS011;68663;49.122;17.544;2024-01-16T14:32:41;4.88;;;2.30;;
79229;SDS011;68663;49.122;17.544;2024-01-16T14:35:08;3.33;;;2.20;;
79229;SDS011;68663;49.122;17.544;2024-01-16T14:37:37;4.88;;;2.38;;
79229;SDS011;68663;49.122;17.544;2024-01-16T14:40:05;4.47;;;2.30;;
79229;SDS011;68663;49.122;17.544;2024-01-16T14:42:38;4.03;;;2.20;;
79229;SDS011;68663;49.122;17.544;2024-01-16T14:45:13;3.28;;;2.15;;
79229;SDS011;68663;49.122;17.544;2024-01-16T14:47:39;3.55;;;2.50;;
79229;SDS011;68663;49.122;17.544;2024-01-16T14:50:05;4.45;;;2.03;;
79229;SDS011;68663;49.122;17.544;2024-01-16T14:52:31;5.85;;;2.00;;
79229;SDS011;68663;49.122;17.544;2024-01-16T14:55:02;6.20;;;2.30;;
79229;SDS011;68663;49.122;17.544;2024-01-16T14:57:28;7.30;;;2.00;;